Date,TemperatureHighF,TemperatureAvgF,TemperatureLowF,DewpointHighF,DewpointAvgF,DewpointLowF,HumidityHigh,HumidityAvg,HumidityLow,PressureMaxIn,PressureMinIn,WindSpeedMaxMPH,WindSpeedAvgMPH,GustSpeedMaxMPH,PrecipitationSumIn
2013-1-1,39.7,37.1,29.2,32.3,29.4,19.2,81,73,64,30.04,29.87,9,2,9,0.11
2013-1-2,32.9,28.0,24.5,20.4,18.2,16.3,76,66,57,30.22,30.00,12,2,12,0.00
2013-1-3,32.4,27.3,21.2,21.8,18.9,16.9,85,71,56,30.22,30.11,12,1,12,0.00
2013-1-4,37.2,33.0,24.8,25.7,23.9,20.1,85,69,61,30.13,30.00,13,2,13,0.00
2013-1-5,40.8,33.2,28.4,27.0,24.0,21.5,84,69,56,30.34,30.07,9,2,9,0.00
2013-1-6,46.1,37.2,30.6,34.4,30.6,26.3,94,78,54,30.23,29.99,8,1,8,0.03
2013-1-7,45.0,36.9,25.8,33.7,29.0,23.2,90,74,55,30.41,30.08,9,1,9,0.00
2013-1-8,47.5,32.5,22.0,35.8,27.6,20.0,96,83,62,30.42,30.35,9,1,9,0.00
2013-1-9,49.6,37.7,26.5,40.8,33.4,24.6,95,85,70,30.40,30.17,8,1,8,0.00
2013-1-10,48.4,41.4,33.5,35.4,30.5,28.1,82,65,52,30.54,30.29,9,2,9,0.00
2013-1-11,45.5,39.4,31.0,44.0,35.9,27.8,97,87,76,30.52,30.08,4,0,4,0.62
2013-1-12,49.6,44.9,42.5,46.9,43.8,41.8,98,96,89,30.17,30.08,4,0,4,0.00
2013-1-13,48.5,46.0,42.8,48.2,45.5,42.1,99,98,97,30.15,29.99,4,0,4,0.02
2013-1-14,54.2,49.9,40.4,53.0,46.5,36.9,99,89,63,30.30,29.93,7,1,7,0.12
2013-1-15,40.4,37.5,34.7,38.3,32.6,30.5,95,83,74,30.35,30.20,9,1,9,0.20
2013-1-16,37.0,34.8,32.9,36.0,33.8,31.9,97,96,91,30.20,29.81,8,1,8,0.95
2013-1-17,42.5,39.0,36.9,36.1,32.4,30.2,96,78,66,30.11,29.93,10,2,10,0.01
2013-1-18,36.9,29.9,23.5,31.3,19.0,12.5,86,64,47,30.49,30.00,13,2,13,0.00
2013-1-19,50.1,38.6,23.5,33.3,28.1,16.5,82,66,51,30.41,29.94,10,2,10,0.00
2013-1-20,53.9,41.7,30.1,35.5,27.3,14.7,84,58,35,30.06,29.74,16,4,16,0.00
2013-1-21,32.9,28.3,21.7,25.0,17.1,13.8,88,63,51,30.11,29.87,10,1,10,0.00
2013-1-22,25.5,18.7,13.4,14.6,3.8,-1.0,64,52,41,30.26,29.88,17,6,17,0.00
2013-1-23,20.4,14.5,10.1,7.9,3.5,-0.7,85,62,49,30.30,30.19,12,2,12,0.00
2013-1-24,25.3,18.3,11.6,10.5,6.6,2.4,87,62,39,30.46,30.14,14,2,14,0.00
2013-1-25,23.9,16.9,8.1,16.2,7.3,1.6,88,67,47,30.47,30.09,8,1,8,0.00
2013-1-26,25.9,14.9,6.0,14.7,9.9,3.2,91,81,56,30.30,30.08,9,1,9,0.00
2013-1-27,33.4,24.9,9.8,19.7,16.3,7.2,89,71,53,30.57,30.47,12,1,12,0.02
2013-1-28,35.4,30.1,18.7,34.3,27.9,15.5,96,91,85,30.52,30.02,7,1,7,0.25
2013-1-29,49.1,42.2,32.8,46.6,40.5,31.8,100,94,88,30.15,30.02,4,0,4,0.00
2013-1-30,66.2,53.5,42.0,60.8,51.9,41.5,99,94,82,30.04,29.33,15,2,15,0.36
2013-1-31,60.2,43.3,28.7,59.4,33.4,15.2,98,69,48,29.84,29.07,18,6,18,0.97
2013-2-1,30.9,28.4,25.8,20.7,15.6,10.2,79,59,44,30.01,29.82,17,4,17,0.00